Executive Decision — CFK9267 — position and weather

sailwx.info

Track history (hours):
 
Tides and Currents Weather Stations Pressure Air Temp Water Temp Dewpoint Dewpoint Depression Visibility Wind Speed Wind Dir Waves Ship Positions

Executive Decision

Last reported at 2015-Jul-11 05:32 UTC. Time now 2015-Sep-04 03:50 UTC.
Position N 35°05' W 120°45'.
Warning: this ship's position is 54 days out of date.

Length 14 m.

Type: Pleasure craft. MMSI: 316015863.

Date/timePositionNaut miles runAvg speedWind from/ knotsBaromVisibWave heightAir tempDewpointWater temp
2015-Jul-11 05:32N 35°05' W 120°45'5 5.3
2015-Jul-11 04:33N 35°10' W 120°44'1 0.1
2015-Jul-10 23:31N 35°10' W 120°45'0 0.0
2015-Jul-10 22:31N 35°10' W 120°45'1 1.5
2015-Jul-10 21:33N 35°09' W 120°46'73 2.5
2015-Jul-09 16:05N 36°05' W 121°43'611.1
2015-Jul-09 15:33N 36°09' W 121°48'1211.2
2015-Jul-09 14:30N 36°19' W 121°56'1111.2
2015-Jul-09 13:33N 36°30' W 121°59'  
2015-Jul-06 16:09N 37°47' W 122°32'4 6.8
2015-Jul-06 15:33N 37°49' W 122°28'4 4.3
2015-Jul-06 14:33N 37°47' W 122°23'0 0.0
2015-Jul-06 05:13N 37°47' W 122°23'0 0.0
2015-Jul-05 21:22N 37°47' W 122°23'0 0.0
2015-Jul-05 20:31N 37°47' W 122°23'0 0.0
2015-Jul-05 19:33N 37°47' W 122°23'0 0.0
2015-Jul-05 18:33N 37°47' W 122°23'0 0.0
2015-Jul-05 17:31N 37°47' W 122°23'0 0.0
2015-Jul-05 16:31N 37°47' W 122°23'0 0.0
2015-Jul-05 15:30N 37°47' W 122°23'0 0.0
2015-Jul-05 14:33N 37°47' W 122°23'0 0.0
2015-Jul-05 13:29N 37°47' W 122°23'0 0.0
2015-Jul-05 12:31N 37°47' W 122°23'0 0.0
2015-Jul-05 11:31N 37°47' W 122°23'0 0.0
2015-Jul-05 10:33N 37°47' W 122°23'0 0.0
2015-Jul-05 09:33N 37°47' W 122°23'0 0.0
2015-Jul-05 08:33N 37°47' W 122°23'0 0.0
2015-Jul-05 07:33N 37°47' W 122°23'0 0.0
2015-Jul-05 06:32N 37°47' W 122°23'0 0.0
2015-Jul-05 05:33N 37°47' W 122°23'0 0.0
2015-Jul-05 04:32N 37°47' W 122°23'0 0.0
2015-Jul-05 03:33N 37°47' W 122°23'0 0.0
2015-Jul-05 02:26N 37°47' W 122°23'0 0.0
2015-Jul-05 01:33N 37°47' W 122°23'0 0.0
2015-Jul-05 00:33N 37°47' W 122°23'0 0.0
2015-Jul-04 23:33N 37°47' W 122°23'0 0.0
2015-Jul-04 22:33N 37°47' W 122°23'0 0.0
2015-Jul-04 21:30N 37°47' W 122°23'0 0.0
2015-Jul-04 20:31N 37°47' W 122°23'0 0.0
2015-Jul-04 19:29N 37°47' W 122°23'0 0.0
2015-Jul-04 18:26N 37°47' W 122°23'0 0.0
2015-Jul-04 17:29N 37°47' W 122°23'0 0.0
2015-Jul-04 16:26N 37°47' W 122°23'0 0.0
2015-Jul-04 15:31N 37°47' W 122°23'0 0.0
2015-Jul-04 14:29N 37°47' W 122°23'0 0.0
2015-Jul-04 13:33N 37°47' W 122°23'0 0.0
2015-Jul-04 12:32N 37°47' W 122°23'0 0.0
2015-Jul-04 11:33N 37°47' W 122°23'0 0.0
2015-Jul-04 10:31N 37°47' W 122°23'0 0.0
2015-Jul-04 09:31N 37°47' W 122°23'0 0.0
2015-Jul-04 08:31N 37°47' W 122°23'0 0.0
2015-Jul-04 07:31N 37°47' W 122°23'0 0.0
2015-Jul-04 06:31N 37°47' W 122°23'0 0.0
2015-Jul-04 05:30N 37°47' W 122°23'0 0.0
2015-Jul-02 15:22N 37°47' W 122°23'0 0.0
2015-Jul-02 14:29N 37°47' W 122°23'0 0.0
2015-Jul-02 13:28N 37°47' W 122°23'0 0.0
2015-Jul-02 12:30N 37°47' W 122°23'0 0.0
2015-Jul-02 11:32N 37°47' W 122°23'0 0.0
2015-Jul-02 10:31N 37°47' W 122°23'0 0.0
2015-Jul-02 09:29N 37°47' W 122°23'0 0.0
2015-Jul-02 08:31N 37°47' W 122°23'0 0.0
2015-Jul-02 07:33N 37°47' W 122°23'0 0.0
2015-Jul-02 06:30N 37°47' W 122°23'0 0.0
2015-Jul-02 05:30N 37°47' W 122°23'0 0.0
2015-Jul-02 04:30N 37°47' W 122°23'0 0.0
2015-Jul-01 21:30N 37°47' W 122°23'1 1.3
2015-Jul-01 20:33N 37°48' W 122°24'6 6.1
2015-Jul-01 19:30N 37°48' W 122°32'  
Track history (hours):
 
Tides and Currents Weather Stations Pressure Air Temp Water Temp Dewpoint Dewpoint Depression Visibility Wind Speed Wind Dir Waves Ship Positions

Executive Decision

Last reported at 2015-Jul-11 05:32 UTC. Time now 2015-Sep-04 03:50 UTC.
Position N 35°05' W 120°45'.
Warning: this ship's position is 54 days out of date.

Length 14 m.

Type: Pleasure craft. MMSI: 316015863.

Date/timePositionNaut miles runAvg speedWind from/ knotsBaromVisibWave heightAir tempDewpointWater temp
2015-Jul-11 05:32N 35°05' W 120°45'5 5.3
2015-Jul-11 04:33N 35°10' W 120°44'1 0.1
2015-Jul-10 23:31N 35°10' W 120°45'0 0.0
2015-Jul-10 22:31N 35°10' W 120°45'1 1.5
2015-Jul-10 21:33N 35°09' W 120°46'73 2.5
2015-Jul-09 16:05N 36°05' W 121°43'611.1
2015-Jul-09 15:33N 36°09' W 121°48'1211.2
2015-Jul-09 14:30N 36°19' W 121°56'1111.2
2015-Jul-09 13:33N 36°30' W 121°59'  
2015-Jul-06 16:09N 37°47' W 122°32'4 6.8
2015-Jul-06 15:33N 37°49' W 122°28'4 4.3
2015-Jul-06 14:33N 37°47' W 122°23'0 0.0
2015-Jul-06 05:13N 37°47' W 122°23'0 0.0
2015-Jul-05 21:22N 37°47' W 122°23'0 0.0
2015-Jul-05 20:31N 37°47' W 122°23'0 0.0
2015-Jul-05 19:33N 37°47' W 122°23'0 0.0
2015-Jul-05 18:33N 37°47' W 122°23'0 0.0
2015-Jul-05 17:31N 37°47' W 122°23'0 0.0
2015-Jul-05 16:31N 37°47' W 122°23'0 0.0
2015-Jul-05 15:30N 37°47' W 122°23'0 0.0
2015-Jul-05 14:33N 37°47' W 122°23'0 0.0
2015-Jul-05 13:29N 37°47' W 122°23'0 0.0
2015-Jul-05 12:31N 37°47' W 122°23'0 0.0
2015-Jul-05 11:31N 37°47' W 122°23'0 0.0
2015-Jul-05 10:33N 37°47' W 122°23'0 0.0
2015-Jul-05 09:33N 37°47' W 122°23'0 0.0
2015-Jul-05 08:33N 37°47' W 122°23'0 0.0
2015-Jul-05 07:33N 37°47' W 122°23'0 0.0
2015-Jul-05 06:32N 37°47' W 122°23'0 0.0
2015-Jul-05 05:33N 37°47' W 122°23'0 0.0
2015-Jul-05 04:32N 37°47' W 122°23'0 0.0
2015-Jul-05 03:33N 37°47' W 122°23'0 0.0
2015-Jul-05 02:26N 37°47' W 122°23'0 0.0
2015-Jul-05 01:33N 37°47' W 122°23'0 0.0
2015-Jul-05 00:33N 37°47' W 122°23'0 0.0
2015-Jul-04 23:33N 37°47' W 122°23'0 0.0
2015-Jul-04 22:33N 37°47' W 122°23'0 0.0
2015-Jul-04 21:30N 37°47' W 122°23'0 0.0
2015-Jul-04 20:31N 37°47' W 122°23'0 0.0
2015-Jul-04 19:29N 37°47' W 122°23'0 0.0
2015-Jul-04 18:26N 37°47' W 122°23'0 0.0
2015-Jul-04 17:29N 37°47' W 122°23'0 0.0
2015-Jul-04 16:26N 37°47' W 122°23'0 0.0
2015-Jul-04 15:31N 37°47' W 122°23'0 0.0
2015-Jul-04 14:29N 37°47' W 122°23'0 0.0
2015-Jul-04 13:33N 37°47' W 122°23'0 0.0
2015-Jul-04 12:32N 37°47' W 122°23'0 0.0
2015-Jul-04 11:33N 37°47' W 122°23'0 0.0
2015-Jul-04 10:31N 37°47' W 122°23'0 0.0
2015-Jul-04 09:31N 37°47' W 122°23'0 0.0
2015-Jul-04 08:31N 37°47' W 122°23'0 0.0
2015-Jul-04 07:31N 37°47' W 122°23'0 0.0
2015-Jul-04 06:31N 37°47' W 122°23'0 0.0
2015-Jul-04 05:30N 37°47' W 122°23'0 0.0
2015-Jul-02 15:22N 37°47' W 122°23'0 0.0
2015-Jul-02 14:29N 37°47' W 122°23'0 0.0
2015-Jul-02 13:28N 37°47' W 122°23'0 0.0
2015-Jul-02 12:30N 37°47' W 122°23'0 0.0
2015-Jul-02 11:32N 37°47' W 122°23'0 0.0
2015-Jul-02 10:31N 37°47' W 122°23'0 0.0
2015-Jul-02 09:29N 37°47' W 122°23'0 0.0
2015-Jul-02 08:31N 37°47' W 122°23'0 0.0
2015-Jul-02 07:33N 37°47' W 122°23'0 0.0
2015-Jul-02 06:30N 37°47' W 122°23'0 0.0
2015-Jul-02 05:30N 37°47' W 122°23'0 0.0
2015-Jul-02 04:30N 37°47' W 122°23'0 0.0
2015-Jul-01 21:30N 37°47' W 122°23'1 1.3
2015-Jul-01 20:33N 37°48' W 122°24'6 6.1
2015-Jul-01 19:30N 37°48' W 122°32'  

Dump ship's entire track history